createdAt,value
2023-03-26T00:01:48.015Z,100201.00
2023-03-26T00:04:27.895Z,100173.53
2023-03-26T00:06:54.592Z,100209.91
2023-03-26T00:09:21.436Z,100174.00
2023-03-26T00:11:48.525Z,100156.00
2023-03-26T00:14:18.001Z,100196.78
2023-03-26T00:16:45.577Z,100192.59
2023-03-26T00:19:12.812Z,100177.16
2023-03-26T00:21:39.872Z,100209.56
2023-03-26T00:24:15.110Z,100163.41
2023-03-26T00:26:42.275Z,100157.47
2023-03-26T00:29:10.538Z,100160.75
2023-03-26T00:31:41.024Z,100195.72
2023-03-26T00:34:08.526Z,100171.84
2023-03-26T00:36:36.233Z,100172.69
2023-03-26T00:39:06.142Z,100192.31
2023-03-26T00:41:37.466Z,100121.28
2023-03-26T00:44:04.576Z,100147.91
2023-03-26T00:46:31.851Z,100164.22
2023-03-26T00:48:59.939Z,100146.22
2023-03-26T00:51:27.958Z,100143.56
2023-03-26T00:53:55.098Z,100175.28
2023-03-26T00:56:21.843Z,100138.47
2023-03-26T00:58:50.257Z,100151.31
2023-03-26T01:01:28.552Z,100122.25
2023-03-26T01:04:08.648Z,100131.63
2023-03-26T01:06:39.037Z,100118.84
2023-03-26T01:09:15.978Z,100098.34
2023-03-26T01:11:43.160Z,100111.03
2023-03-26T01:14:26.987Z,100087.19
2023-03-26T01:16:56.341Z,100077.75
2023-03-26T01:19:34.214Z,100100.72
2023-03-26T01:22:00.820Z,100086.97
2023-03-26T01:24:27.417Z,100086.00
2023-03-26T01:26:58.995Z,100067.25
2023-03-26T01:29:31.721Z,100041.53
2023-03-26T01:32:17.347Z,100089.16
2023-03-26T01:35:02.975Z,100054.91
2023-03-26T01:37:53.913Z,100073.56
2023-03-26T01:40:28.491Z,100021.47
2023-03-26T01:42:58.669Z,100069.19
2023-03-26T01:45:31.251Z,100038.47
2023-03-26T01:47:58.412Z,100036.78
2023-03-26T01:50:25.021Z,100058.13
2023-03-26T01:52:51.636Z,100039.16
2023-03-26T01:55:19.329Z,100033.09
2023-03-26T01:58:06.942Z,100057.84
2023-03-26T02:00:42.218Z,100045.06
2023-03-26T02:03:30.160Z,100059.59
2023-03-26T02:05:57.983Z,100050.94
2023-03-26T02:08:39.605Z,100017.00
2023-03-26T02:11:11.843Z,100045.81
2023-03-26T02:13:41.031Z,100018.69
2023-03-26T02:16:12.346Z,100016.88
2023-03-26T02:18:41.774Z,100013.47
2023-03-26T02:21:20.431Z,100044.22
2023-03-26T02:23:50.821Z,100026.25
2023-03-26T02:26:19.968Z,100034.78
2023-03-26T02:28:46.575Z,100033.34
2023-03-26T02:31:17.240Z,100034.19
2023-03-26T02:33:44.856Z,99997.44
2023-03-26T02:36:14.072Z,99968.38
2023-03-26T02:38:41.785Z,99981.88
2023-03-26T02:41:08.411Z,99996.44
2023-03-26T02:43:35.211Z,99981.25
2023-03-26T02:46:01.946Z,99995.69
2023-03-26T02:48:28.515Z,99966.56
2023-03-26T02:50:55.190Z,99993.94
2023-03-26T02:53:24.293Z,99993.84
2023-03-26T02:55:53.748Z,99977.81
2023-03-26T02:58:20.717Z,99964.13
2023-03-26T03:00:48.035Z,99950.59
2023-03-26T03:03:17.311Z,99971.09
2023-03-26T03:05:44.068Z,99981.19
2023-03-26T03:08:10.892Z,99925.91
2023-03-26T03:10:38.003Z,99930.03
2023-03-26T03:13:08.058Z,99913.84
2023-03-26T03:15:35.106Z,99933.38
2023-03-26T03:18:02.637Z,99965.53
2023-03-26T03:20:30.464Z,99943.41
2023-03-26T03:22:57.147Z,99930.69
2023-03-26T03:25:26.112Z,99907.56
2023-03-26T03:27:54.058Z,99911.84
2023-03-26T03:30:21.072Z,99963.06
2023-03-26T03:32:47.988Z,99891.41
2023-03-26T03:35:15.014Z,99936.50
2023-03-26T03:37:42.293Z,99945.03
2023-03-26T03:40:11.150Z,99933.91
2023-03-26T03:42:38.145Z,99961.31
2023-03-26T03:45:06.399Z,99946.00
2023-03-26T03:47:33.061Z,99936.75
2023-03-26T03:50:00.357Z,99933.38
2023-03-26T03:52:30.670Z,99950.47
2023-03-26T03:55:00.554Z,99948.78
2023-03-26T03:57:28.634Z,99960.88
2023-03-26T03:59:58.521Z,99957.75
2023-03-26T04:02:26.819Z,99975.94
2023-03-26T04:04:54.483Z,99948.16
2023-03-26T04:07:21.327Z,99927.09
2023-03-26T04:09:48.232Z,99921.34
2023-03-26T04:12:15.318Z,99935.25
2023-03-26T04:14:42.721Z,99884.50
2023-03-26T04:17:10.555Z,99919.47
2023-03-26T04:19:37.846Z,99910.34
2023-03-26T04:22:06.850Z,99946.09
2023-03-26T04:24:42.379Z,99958.09
2023-03-26T04:27:14.301Z,99946.31
2023-03-26T04:29:43.098Z,99955.75
2023-03-26T04:32:21.955Z,99918.38
2023-03-26T04:34:48.486Z,99957.69
2023-03-26T04:37:24.956Z,99938.19
2023-03-26T04:39:51.528Z,99956.94
2023-03-26T04:42:20.301Z,99960.41
2023-03-26T04:44:50.848Z,99950.94
2023-03-26T04:47:18.579Z,99922.84
2023-03-26T04:49:47.454Z,99946.72
2023-03-26T04:52:15.293Z,99947.50
2023-03-26T04:54:44.412Z,99947.69
2023-03-26T04:57:39.451Z,99957.94
2023-03-26T05:00:18.874Z,99949.25
2023-03-26T05:02:49.716Z,99943.34
2023-03-26T05:05:18.862Z,99954.44
2023-03-26T05:07:48.044Z,99939.91
2023-03-26T05:10:16.131Z,99938.31
2023-03-26T05:12:42.732Z,99947.78
2023-03-26T05:15:11.470Z,99957.31
2023-03-26T05:17:41.651Z,99954.72
2023-03-26T05:20:20.802Z,99944.56
2023-03-26T05:22:49.698Z,99959.06
2023-03-26T05:25:17.490Z,99953.97
2023-03-26T05:27:44.674Z,99930.13
2023-03-26T05:30:18.626Z,99947.94
2023-03-26T05:32:48.843Z,99938.56
2023-03-26T05:35:19.025Z,99942.13
2023-03-26T05:37:47.411Z,99950.72
2023-03-26T05:40:17.265Z,99961.00
2023-03-26T05:42:44.676Z,99952.47
2023-03-26T05:45:13.955Z,99965.47
2023-03-26T05:47:40.773Z,99962.13
2023-03-26T05:50:08.813Z,99969.81
2023-03-26T05:52:36.319Z,99958.88
2023-03-26T05:55:03.546Z,99960.75
2023-03-26T05:57:31.441Z,99958.25
2023-03-26T06:00:00.235Z,99965.06
2023-03-26T06:02:27.127Z,99966.78
2023-03-26T06:04:53.794Z,99959.22
2023-03-26T06:07:21.746Z,99970.34
2023-03-26T06:09:49.520Z,99981.53
2023-03-26T06:12:16.241Z,99973.03
2023-03-26T06:14:43.202Z,99968.94
2023-03-26T06:17:10.397Z,99971.41
2023-03-26T06:19:37.184Z,99979.19
2023-03-26T06:22:04.990Z,99986.97
2023-03-26T06:24:32.813Z,99979.28
2023-03-26T06:26:59.489Z,99994.72
2023-03-26T06:29:26.126Z,99995.59
2023-03-26T06:31:52.909Z,99976.03
2023-03-26T06:34:19.725Z,99985.53
2023-03-26T06:36:48.974Z,99999.25
2023-03-26T06:39:16.087Z,99994.22
2023-03-26T06:41:42.759Z,100008.88
2023-03-26T06:44:09.549Z,100008.16
2023-03-26T06:46:36.445Z,100015.88
2023-03-26T06:49:03.261Z,100002.25
2023-03-26T06:51:30.047Z,100020.22
2023-03-26T06:53:56.962Z,100030.50
2023-03-26T06:56:23.583Z,100017.63
2023-03-26T06:58:50.173Z,100021.94
2023-03-26T07:01:16.849Z,100023.78
2023-03-26T07:03:43.489Z,100038.22
2023-03-26T07:06:10.277Z,100024.63
2023-03-26T07:08:36.913Z,100040.09
2023-03-26T07:11:03.608Z,100056.34
2023-03-26T07:13:30.220Z,100066.56
2023-03-26T07:15:57.070Z,100060.66
2023-03-26T07:18:23.706Z,100063.97
2023-03-26T07:20:50.792Z,100058.78
2023-03-26T07:23:20.789Z,100060.66
2023-03-26T07:25:48.831Z,100064.06
2023-03-26T07:28:33.498Z,100079.41
2023-03-26T07:31:10.053Z,100073.53
2023-03-26T07:33:52.587Z,100080.41
2023-03-26T07:36:23.205Z,100094.13
2023-03-26T07:38:53.296Z,100104.50
2023-03-26T07:41:26.387Z,100096.72
2023-03-26T07:44:07.913Z,100101.09
2023-03-26T07:46:37.009Z,100093.63
2023-03-26T07:49:05.268Z,100107.22
2023-03-26T07:51:32.765Z,100090.25
2023-03-26T07:54:00.729Z,100100.50
2023-03-26T07:56:39.723Z,100124.47
2023-03-26T07:59:25.620Z,100131.34
2023-03-26T08:02:16.591Z,100134.78
2023-03-26T08:04:48.636Z,100139.84
2023-03-26T08:07:28.573Z,100150.09
2023-03-26T08:10:26.476Z,100146.63
2023-03-26T08:13:10.374Z,100133.06
2023-03-26T08:15:46.003Z,100156.06
2023-03-26T08:18:38.770Z,100163.75
2023-03-26T08:21:27.329Z,100168.06
2023-03-26T08:24:14.192Z,100158.72
2023-03-26T08:27:10.106Z,100172.41
2023-03-26T08:30:03.013Z,100179.22
2023-03-26T08:32:30.163Z,100180.03
2023-03-26T08:34:57.746Z,100161.25
2023-03-26T08:37:24.434Z,100180.91
2023-03-26T08:39:51.409Z,100184.38
2023-03-26T08:42:40.169Z,100190.38
2023-03-26T08:45:25.713Z,100207.53
2023-03-26T08:48:11.252Z,100208.34
2023-03-26T08:51:07.845Z,100216.97
2023-03-26T08:53:49.971Z,100203.34
2023-03-26T08:57:03.972Z,100223.78
2023-03-26T09:00:01.308Z,100226.34
2023-03-26T09:02:35.169Z,100228.06
2023-03-26T09:05:58.436Z,100232.31
2023-03-26T09:08:54.483Z,100230.63
2023-03-26T09:11:52.356Z,100235.84
2023-03-26T09:14:42.640Z,100225.56
2023-03-26T09:17:44.892Z,100239.34
2023-03-26T09:20:36.538Z,100253.88
2023-03-26T09:23:08.947Z,100261.63
2023-03-26T09:25:47.773Z,100266.75
2023-03-26T09:28:51.904Z,100263.22
2023-03-26T09:31:32.154Z,100279.47
2023-03-26T09:34:30.521Z,100260.50
2023-03-26T09:37:25.689Z,100283.59
2023-03-26T09:40:15.353Z,100279.28
2023-03-26T09:42:44.796Z,100286.91
2023-03-26T09:45:17.678Z,100289.34
2023-03-26T09:47:50.333Z,100297.00
2023-03-26T09:50:34.414Z,100287.50
2023-03-26T09:53:07.103Z,100300.31
2023-03-26T09:55:45.006Z,100295.25
2023-03-26T09:58:42.410Z,100313.91
2023-03-26T10:01:21.289Z,100315.47
2023-03-26T10:04:09.264Z,100328.34
2023-03-26T10:06:59.955Z,100325.56
2023-03-26T10:09:46.168Z,100328.84
2023-03-26T10:12:16.881Z,100326.28
2023-03-26T10:15:01.493Z,100339.81
2023-03-26T10:17:38.941Z,100354.31
2023-03-26T10:20:17.866Z,100351.47
2023-03-26T10:23:24.459Z,100348.03
2023-03-26T10:26:26.385Z,100360.66
2023-03-26T10:29:24.310Z,100375.78
2023-03-26T10:32:01.022Z,100361.16
2023-03-26T10:35:04.757Z,100384.13
2023-03-26T10:37:57.016Z,100378.94
2023-03-26T10:40:43.045Z,100376.13
2023-03-26T10:43:28.277Z,100385.34
2023-03-26T10:46:00.942Z,100392.22
2023-03-26T10:48:49.159Z,100404.06
2023-03-26T10:51:27.747Z,100403.91
2023-03-26T10:54:06.179Z,100395.41
2023-03-26T10:56:38.452Z,100401.47
2023-03-26T10:59:12.936Z,100407.38
2023-03-26T11:01:58.533Z,100416.81
2023-03-26T11:04:31.321Z,100422.88
2023-03-26T11:07:16.667Z,100425.53
2023-03-26T11:09:54.163Z,100430.78
2023-03-26T11:12:33.816Z,100419.78
2023-03-26T11:15:38.272Z,100438.81
2023-03-26T11:18:10.859Z,100424.47
2023-03-26T11:20:46.441Z,100446.03
2023-03-26T11:23:26.706Z,100452.06
2023-03-26T11:26:16.772Z,100454.66
2023-03-26T11:29:32.569Z,100464.22
2023-03-26T11:32:05.350Z,100455.84
2023-03-26T11:34:42.059Z,100480.81
2023-03-26T11:37:21.379Z,100482.66
2023-03-26T11:39:55.218Z,100484.59
2023-03-26T11:42:25.317Z,100495.84
2023-03-26T11:45:02.647Z,100493.50
2023-03-26T11:47:38.918Z,100505.84
2023-03-26T11:50:08.350Z,100499.09
2023-03-26T11:52:36.136Z,100519.78
2023-03-26T11:55:03.326Z,100528.06
2023-03-26T11:57:33.520Z,100519.06
2023-03-26T12:00:17.689Z,100528.84
2023-03-26T12:02:47.019Z,100530.25
2023-03-26T12:05:20.468Z,100549.78
2023-03-26T12:07:51.155Z,100562.66
2023-03-26T12:10:39.239Z,100573.06
2023-03-26T12:13:19.432Z,100573.22
2023-03-26T12:15:46.106Z,100563.22
2023-03-26T12:18:25.992Z,100584.94
2023-03-26T12:21:22.943Z,100596.38
2023-03-26T12:24:05.692Z,100596.50
2023-03-26T12:26:41.395Z,100594.75
2023-03-26T12:29:18.985Z,100598.25
2023-03-26T12:31:56.421Z,100615.56
2023-03-26T12:34:43.440Z,100625.28
2023-03-26T12:37:38.072Z,100622.97
2023-03-26T12:40:30.607Z,100634.41
2023-03-26T12:44:49.934Z,100633.06
2023-03-26T12:47:55.260Z,100637.44
2023-03-26T12:48:48.223Z,100656.47
2023-03-26T12:51:28.934Z,100658.38
2023-03-26T12:54:03.745Z,100678.13
2023-03-26T12:56:50.031Z,100680.69
2023-03-26T13:00:08.862Z,100691.91
2023-03-26T13:02:53.299Z,100703.22
2023-03-26T13:05:42.312Z,100701.50
2023-03-26T13:08:21.604Z,100709.34
2023-03-26T13:10:54.746Z,100696.41
2023-03-26T13:13:56.721Z,100717.84
2023-03-26T13:16:35.329Z,100717.94
2023-03-26T13:19:27.143Z,100728.25
2023-03-26T13:22:10.117Z,100743.81
2023-03-26T13:25:14.078Z,100745.91
2023-03-26T13:27:52.685Z,100752.41
2023-03-26T13:30:41.885Z,100768.09
2023-03-26T13:33:31.751Z,100778.59
2023-03-26T13:36:31.002Z,100776.13
2023-03-26T13:39:50.265Z,100801.25
2023-03-26T13:42:37.792Z,100790.19
2023-03-26T13:45:41.988Z,100806.56
2023-03-26T13:48:23.795Z,100798.19
2023-03-26T13:51:15.441Z,100781.13
2023-03-26T13:53:50.609Z,100805.31
2023-03-26T13:56:23.772Z,100819.03
2023-03-26T13:58:56.356Z,100847.38
2023-03-26T14:01:35.519Z,100836.19
2023-03-26T14:04:19.946Z,100838.59
2023-03-26T14:07:18.664Z,100842.91
2023-03-26T14:09:48.655Z,100868.59
2023-03-26T14:12:22.040Z,100876.41
2023-03-26T14:15:02.132Z,100864.34
2023-03-26T14:17:54.651Z,100878.13
2023-03-26T14:20:51.532Z,100889.41
2023-03-26T14:23:49.063Z,100907.63
2023-03-26T14:26:58.354Z,100910.28
2023-03-26T14:29:33.230Z,100914.72
2023-03-26T14:32:24.227Z,100898.47
2023-03-26T14:35:32.014Z,100927.72
2023-03-26T14:38:09.422Z,100940.81
2023-03-26T14:41:19.908Z,100941.69
2023-03-26T14:43:55.654Z,100946.00
2023-03-26T14:46:45.642Z,100929.56
2023-03-26T14:49:37.700Z,100931.28
2023-03-26T14:52:11.578Z,100964.03
2023-03-26T14:54:45.791Z,100963.25
2023-03-26T14:57:30.223Z,100974.47
2023-03-26T15:00:28.936Z,100990.16
2023-03-26T15:03:13.573Z,100998.00
2023-03-26T15:06:23.113Z,100974.81
2023-03-26T15:09:30.053Z,101003.31
2023-03-26T15:12:12.512Z,101012.88
2023-03-26T15:15:05.334Z,101016.34
2023-03-26T15:18:02.765Z,101026.72
2023-03-26T15:20:50.244Z,101005.22
2023-03-26T15:23:47.358Z,101026.69
2023-03-26T15:26:47.059Z,101042.31
2023-03-26T15:30:11.291Z,101049.22
2023-03-26T15:32:49.824Z,101053.56
2023-03-26T15:35:34.887Z,101057.91
2023-03-26T15:38:26.371Z,101056.13
2023-03-26T15:41:04.781Z,101071.69
2023-03-26T15:44:23.527Z,101070.03
2023-03-26T15:47:16.311Z,101077.88
2023-03-26T15:50:09.565Z,101097.75
2023-03-26T15:53:23.598Z,101057.38
2023-03-26T15:56:14.435Z,101062.56
2023-03-26T15:59:12.217Z,101109.16
2023-03-26T16:02:23.510Z,101127.25
2023-03-26T16:05:38.658Z,101135.09
2023-03-26T16:08:53.196Z,101111.91
2023-03-26T16:11:59.190Z,101147.25
2023-03-26T16:14:51.827Z,101148.16
2023-03-26T16:17:24.440Z,101103.41
2023-03-26T16:20:20.084Z,101168.94
2023-03-26T16:30:09.833Z,101156.97
2023-03-26T16:32:54.892Z,101131.16
2023-03-26T16:39:58.693Z,101174.47
2023-03-26T16:43:07.313Z,101218.47
2023-03-26T16:45:46.080Z,101198.66
2023-03-26T16:48:32.810Z,101165.09
2023-03-26T16:55:27.348Z,101191.03
2023-03-26T16:59:04.867Z,101217.81
2023-03-26T17:01:41.385Z,101282.56
2023-03-26T17:04:48.983Z,101288.63
2023-03-26T17:07:51.458Z,101226.50
2023-03-26T17:10:45.700Z,101290.44
2023-03-26T17:17:23.503Z,101257.66
2023-03-26T17:20:16.136Z,101253.41
2023-03-26T17:23:13.293Z,101245.63
2023-03-26T17:26:37.468Z,101317.28
2023-03-26T17:29:13.858Z,101300.91
2023-03-26T17:31:54.385Z,101328.53
2023-03-26T17:34:52.107Z,101289.69
2023-03-26T17:37:22.023Z,101335.41
2023-03-26T17:39:57.879Z,101348.41
2023-03-26T17:42:36.162Z,101353.63
2023-03-26T17:45:12.844Z,101368.31
2023-03-26T17:47:48.427Z,101297.47
2023-03-26T17:50:26.784Z,101375.22
2023-03-26T17:53:41.113Z,101386.47
2023-03-26T17:59:19.204Z,101341.56
2023-03-26T18:05:55.625Z,101345.84
2023-03-26T18:09:08.068Z,101407.22
2023-03-26T18:12:20.128Z,101440.06
2023-03-26T18:15:29.784Z,101443.53
2023-03-26T18:18:28.420Z,101408.97
2023-03-26T18:24:29.996Z,101432.28
2023-03-26T18:39:46.041Z,101496.25
2023-03-26T18:42:55.316Z,101433.09
2023-03-26T18:45:38.696Z,101516.97
2023-03-26T18:48:22.774Z,101443.41
2023-03-26T18:51:05.189Z,101472.84
2023-03-26T18:54:01.848Z,101499.69
2023-03-26T18:56:41.611Z,101504.84
2023-03-26T18:59:40.885Z,101546.38
2023-03-26T19:02:20.947Z,101515.19
2023-03-26T19:05:06.724Z,101471.91
2023-03-26T19:07:45.806Z,101519.50
2023-03-26T19:10:45.467Z,101530.75
2023-03-26T19:13:35.485Z,101482.28
2023-03-26T19:16:21.902Z,101541.16
2023-03-26T19:19:03.613Z,101541.13
2023-03-26T19:22:18.162Z,101516.03
2023-03-26T19:25:05.691Z,101518.63
2023-03-26T19:27:38.487Z,101527.19
2023-03-26T19:30:28.620Z,101563.53
2023-03-26T19:33:15.976Z,101527.13
2023-03-26T19:36:28.596Z,101532.31
2023-03-26T19:39:34.726Z,101548.75
2023-03-26T19:42:20.711Z,101592.03
2023-03-26T19:48:15.265Z,101563.44
2023-03-26T19:51:12.079Z,101561.69
2023-03-26T19:53:59.632Z,101581.59
2023-03-26T19:56:44.385Z,101583.31
2023-03-26T20:02:41.549Z,101626.56
2023-03-26T20:05:42.375Z,101617.88
2023-03-26T20:12:23.313Z,101618.69
2023-03-26T20:15:25.977Z,101689.69
2023-03-26T20:18:02.673Z,101686.25
2023-03-26T20:20:56.440Z,101646.28
2023-03-26T20:24:22.061Z,101643.69
2023-03-26T20:31:51.534Z,101646.22
2023-03-26T20:34:22.844Z,101628.84
2023-03-26T20:37:01.184Z,101680.81
2023-03-26T20:39:54.978Z,101656.56
2023-03-26T20:47:00.295Z,101750.88
2023-03-26T20:49:38.920Z,101702.25
2023-03-26T20:52:38.553Z,101671.88
2023-03-26T20:55:32.982Z,101671.00
2023-03-26T20:58:31.376Z,101685.75
2023-03-26T21:01:06.227Z,101735.13
2023-03-26T21:03:46.703Z,101706.44
2023-03-26T21:09:53.744Z,101774.09
2023-03-26T21:13:27.431Z,101692.50
2023-03-26T21:19:58.155Z,101705.47
2023-03-26T21:23:09.958Z,101787.78
2023-03-26T21:26:20.660Z,101774.69
2023-03-26T21:29:13.277Z,101722.59
2023-03-26T21:32:08.500Z,101745.16
2023-03-26T21:41:49.160Z,101744.22
2023-03-26T21:44:51.018Z,101762.41
2023-03-26T21:47:30.829Z,101791.03
2023-03-26T21:50:01.889Z,101741.56
2023-03-26T21:52:59.272Z,101775.41
2023-03-26T21:55:26.783Z,101751.03
2023-03-26T21:58:16.841Z,101840.47
2023-03-26T22:01:06.328Z,101854.25
2023-03-26T22:08:07.178Z,101861.88
2023-03-26T22:10:33.943Z,101784.59
2023-03-26T22:13:00.698Z,101861.03
2023-03-26T22:15:30.921Z,101827.06
2023-03-26T22:18:02.545Z,101813.91
2023-03-26T22:20:32.123Z,101868.63
2023-03-26T22:23:00.240Z,101866.81
2023-03-26T22:25:27.598Z,101906.78
2023-03-26T22:27:55.372Z,101894.59
2023-03-26T22:30:21.981Z,101876.38
2023-03-26T22:33:06.318Z,101853.78
2023-03-26T22:35:48.580Z,101835.56
2023-03-26T22:38:20.006Z,101867.69
2023-03-26T22:40:56.027Z,101901.50
2023-03-26T22:43:25.967Z,101853.63
2023-03-26T22:45:56.266Z,101868.38
2023-03-26T22:48:23.966Z,101863.16
2023-03-26T22:51:14.964Z,101938.78
2023-03-26T22:53:55.672Z,101849.19
2023-03-26T22:56:48.594Z,101858.72
2023-03-26T22:59:34.347Z,101859.56
2023-03-26T23:02:01.296Z,101941.13
2023-03-26T23:04:31.569Z,101922.06
2023-03-26T23:07:01.944Z,101932.47
2023-03-26T23:09:32.753Z,101899.41
2023-03-26T23:12:02.090Z,101938.50
2023-03-26T23:14:29.140Z,101946.25
2023-03-26T23:17:02.001Z,101949.72
2023-03-26T23:19:31.314Z,101960.97
2023-03-26T23:21:57.950Z,101967.09
2023-03-26T23:24:27.878Z,101945.31
2023-03-26T23:26:54.606Z,101963.56
2023-03-26T23:29:23.945Z,101963.56
2023-03-26T23:31:53.277Z,101960.94
2023-03-26T23:34:21.072Z,101937.47
2023-03-26T23:36:48.073Z,101961.78
2023-03-26T23:39:14.614Z,101975.56
2023-03-26T23:41:41.447Z,101989.50
2023-03-26T23:44:08.342Z,101998.09
2023-03-26T23:46:35.152Z,101943.31
2023-03-26T23:49:04.900Z,101954.56
2023-03-26T23:51:32.735Z,101979.72
2023-03-26T23:54:01.068Z,101999.69
2023-03-26T23:56:29.082Z,102004.88
2023-03-26T23:59:01.827Z,101958.75
